sensor_id;sensor_type;location;lat;lon;timestamp;P1;durP1;ratioP1;P2;durP2;ratioP2
14153;SDS011;7157;53.144;7.570;2023-04-09T00:01:34;67.50;;;28.50;;
14153;SDS011;7157;53.144;7.570;2023-04-09T00:11:37;64.28;;;28.75;;
14153;SDS011;7157;53.144;7.570;2023-04-09T00:21:41;59.35;;;27.48;;
14153;SDS011;7157;53.144;7.570;2023-04-09T00:31:44;59.88;;;27.35;;
14153;SDS011;7157;53.144;7.570;2023-04-09T00:41:48;58.47;;;27.55;;
14153;SDS011;7157;53.144;7.570;2023-04-09T00:51:51;59.38;;;28.83;;
14153;SDS011;7157;53.144;7.570;2023-04-09T01:01:55;71.03;;;29.38;;
14153;SDS011;7157;53.144;7.570;2023-04-09T01:12:00;70.18;;;29.42;;
14153;SDS011;7157;53.144;7.570;2023-04-09T01:22:17;58.92;;;26.48;;
14153;SDS011;7157;53.144;7.570;2023-04-09T01:32:32;60.22;;;25.27;;
14153;SDS011;7157;53.144;7.570;2023-04-09T01:42:38;64.68;;;27.85;;
14153;SDS011;7157;53.144;7.570;2023-04-09T01:52:43;70.63;;;27.88;;
14153;SDS011;7157;53.144;7.570;2023-04-09T02:02:48;60.72;;;28.58;;
14153;SDS011;7157;53.144;7.570;2023-04-09T02:12:58;61.87;;;29.17;;
14153;SDS011;7157;53.144;7.570;2023-04-09T02:23:03;62.45;;;28.38;;
14153;SDS011;7157;53.144;7.570;2023-04-09T02:33:07;65.78;;;30.15;;
14153;SDS011;7157;53.144;7.570;2023-04-09T02:43:10;59.90;;;30.50;;
14153;SDS011;7157;53.144;7.570;2023-04-09T02:53:14;74.72;;;32.75;;
14153;SDS011;7157;53.144;7.570;2023-04-09T03:03:17;65.75;;;32.83;;
14153;SDS011;7157;53.144;7.570;2023-04-09T03:13:21;68.97;;;31.98;;
14153;SDS011;7157;53.144;7.570;2023-04-09T03:23:23;61.58;;;30.88;;
14153;SDS011;7157;53.144;7.570;2023-04-09T03:33:28;59.15;;;28.70;;
14153;SDS011;7157;53.144;7.570;2023-04-09T03:43:31;63.00;;;29.42;;
14153;SDS011;7157;53.144;7.570;2023-04-09T03:53:35;68.20;;;30.67;;
14153;SDS011;7157;53.144;7.570;2023-04-09T04:03:37;64.40;;;29.95;;
14153;SDS011;7157;53.144;7.570;2023-04-09T04:13:42;60.92;;;29.30;;
14153;SDS011;7157;53.144;7.570;2023-04-09T04:23:44;64.13;;;29.08;;
14153;SDS011;7157;53.144;7.570;2023-04-09T04:33:48;62.63;;;29.00;;
14153;SDS011;7157;53.144;7.570;2023-04-09T04:43:51;73.43;;;30.17;;
14153;SDS011;7157;53.144;7.570;2023-04-09T04:53:55;65.60;;;28.70;;
14153;SDS011;7157;53.144;7.570;2023-04-09T05:03:58;72.35;;;31.10;;
14153;SDS011;7157;53.144;7.570;2023-04-09T05:14:05;72.35;;;31.10;;
14153;SDS011;7157;53.144;7.570;2023-04-09T05:24:08;81.15;;;33.00;;
14153;SDS011;7157;53.144;7.570;2023-04-09T05:34:12;68.68;;;32.53;;
14153;SDS011;7157;53.144;7.570;2023-04-09T05:44:15;76.05;;;31.10;;
14153;SDS011;7157;53.144;7.570;2023-04-09T05:54:19;66.20;;;29.92;;
14153;SDS011;7157;53.144;7.570;2023-04-09T06:04:22;69.90;;;31.17;;
14153;SDS011;7157;53.144;7.570;2023-04-09T06:14:26;70.50;;;34.22;;
14153;SDS011;7157;53.144;7.570;2023-04-09T06:24:29;74.90;;;33.72;;
14153;SDS011;7157;53.144;7.570;2023-04-09T06:34:34;69.38;;;30.20;;
14153;SDS011;7157;53.144;7.570;2023-04-09T06:44:36;64.22;;;29.10;;
14153;SDS011;7157;53.144;7.570;2023-04-09T06:54:40;53.55;;;26.00;;
14153;SDS011;7157;53.144;7.570;2023-04-09T07:04:43;46.40;;;21.50;;
14153;SDS011;7157;53.144;7.570;2023-04-09T07:14:49;36.95;;;16.98;;
14153;SDS011;7157;53.144;7.570;2023-04-09T07:24:51;31.00;;;13.75;;
14153;SDS011;7157;53.144;7.570;2023-04-09T07:34:56;28.75;;;14.57;;
14153;SDS011;7157;53.144;7.570;2023-04-09T07:44:59;31.13;;;13.85;;
14153;SDS011;7157;53.144;7.570;2023-04-09T07:55:05;30.55;;;14.25;;
14153;SDS011;7157;53.144;7.570;2023-04-09T08:05:08;30.63;;;14.25;;
14153;SDS011;7157;53.144;7.570;2023-04-09T08:15:12;29.08;;;14.23;;
14153;SDS011;7157;53.144;7.570;2023-04-09T08:25:15;31.08;;;15.18;;
14153;SDS011;7157;53.144;7.570;2023-04-09T08:35:19;34.38;;;15.23;;
14153;SDS011;7157;53.144;7.570;2023-04-09T08:45:22;28.65;;;14.80;;
14153;SDS011;7157;53.144;7.570;2023-04-09T08:55:26;34.88;;;15.85;;
14153;SDS011;7157;53.144;7.570;2023-04-09T09:05:35;26.85;;;13.73;;
14153;SDS011;7157;53.144;7.570;2023-04-09T09:15:40;30.02;;;14.60;;
14153;SDS011;7157;53.144;7.570;2023-04-09T09:25:43;25.63;;;12.90;;
14153;SDS011;7157;53.144;7.570;2023-04-09T09:35:48;26.85;;;14.55;;
14153;SDS011;7157;53.144;7.570;2023-04-09T09:45:52;23.52;;;11.95;;
14153;SDS011;7157;53.144;7.570;2023-04-09T09:55:56;28.77;;;13.30;;
14153;SDS011;7157;53.144;7.570;2023-04-09T10:06:01;28.60;;;13.98;;
14153;SDS011;7157;53.144;7.570;2023-04-09T10:16:06;36.10;;;16.45;;
14153;SDS011;7157;53.144;7.570;2023-04-09T10:26:10;30.80;;;15.43;;
14153;SDS011;7157;53.144;7.570;2023-04-09T10:36:14;29.52;;;15.60;;
14153;SDS011;7157;53.144;7.570;2023-04-09T10:46:26;31.47;;;14.87;;
14153;SDS011;7157;53.144;7.570;2023-04-09T10:56:31;27.73;;;14.10;;
14153;SDS011;7157;53.144;7.570;2023-04-09T11:06:34;28.60;;;15.13;;
14153;SDS011;7157;53.144;7.570;2023-04-09T11:16:40;26.95;;;14.45;;
14153;SDS011;7157;53.144;7.570;2023-04-09T11:26:43;23.20;;;14.02;;
14153;SDS011;7157;53.144;7.570;2023-04-09T11:36:49;23.30;;;15.93;;
14153;SDS011;7157;53.144;7.570;2023-04-09T11:46:51;20.55;;;14.02;;
14153;SDS011;7157;53.144;7.570;2023-04-09T11:56:57;18.45;;;12.70;;
14153;SDS011;7157;53.144;7.570;2023-04-09T12:07:00;16.00;;;12.10;;
14153;SDS011;7157;53.144;7.570;2023-04-09T12:17:04;16.73;;;11.88;;
14153;SDS011;7157;53.144;7.570;2023-04-09T12:27:09;16.75;;;12.07;;
14153;SDS011;7157;53.144;7.570;2023-04-09T12:37:14;15.75;;;11.18;;
14153;SDS011;7157;53.144;7.570;2023-04-09T12:47:16;14.60;;;10.98;;
14153;SDS011;7157;53.144;7.570;2023-04-09T12:57:20;15.45;;;12.02;;
14153;SDS011;7157;53.144;7.570;2023-04-09T13:07:23;16.23;;;12.27;;
14153;SDS011;7157;53.144;7.570;2023-04-09T13:17:30;16.73;;;11.52;;
14153;SDS011;7157;53.144;7.570;2023-04-09T13:27:33;16.27;;;10.65;;
14153;SDS011;7157;53.144;7.570;2023-04-09T13:37:37;15.50;;;10.52;;
14153;SDS011;7157;53.144;7.570;2023-04-09T13:47:40;16.45;;;11.00;;
14153;SDS011;7157;53.144;7.570;2023-04-09T13:57:44;12.88;;;9.02;;
14153;SDS011;7157;53.144;7.570;2023-04-09T14:07:47;14.93;;;8.43;;
14153;SDS011;7157;53.144;7.570;2023-04-09T14:17:51;14.43;;;9.52;;
14153;SDS011;7157;53.144;7.570;2023-04-09T14:27:54;13.30;;;8.93;;
14153;SDS011;7157;53.144;7.570;2023-04-09T14:37:58;14.57;;;8.70;;
14153;SDS011;7157;53.144;7.570;2023-04-09T14:48:01;12.07;;;7.45;;
14153;SDS011;7157;53.144;7.570;2023-04-09T14:58:05;11.20;;;6.90;;
14153;SDS011;7157;53.144;7.570;2023-04-09T15:08:08;13.98;;;8.32;;
14153;SDS011;7157;53.144;7.570;2023-04-09T15:18:12;11.90;;;7.25;;
14153;SDS011;7157;53.144;7.570;2023-04-09T15:28:15;12.45;;;7.68;;
14153;SDS011;7157;53.144;7.570;2023-04-09T15:38:19;13.70;;;7.30;;
14153;SDS011;7157;53.144;7.570;2023-04-09T15:48:25;12.60;;;7.55;;
14153;SDS011;7157;53.144;7.570;2023-04-09T15:58:29;14.05;;;8.25;;
14153;SDS011;7157;53.144;7.570;2023-04-09T16:08:32;14.20;;;8.20;;
14153;SDS011;7157;53.144;7.570;2023-04-09T16:18:36;13.20;;;7.90;;
14153;SDS011;7157;53.144;7.570;2023-04-09T16:28:39;13.73;;;8.13;;
14153;SDS011;7157;53.144;7.570;2023-04-09T16:38:43;13.68;;;8.00;;
14153;SDS011;7157;53.144;7.570;2023-04-09T16:48:45;12.82;;;7.57;;
14153;SDS011;7157;53.144;7.570;2023-04-09T16:58:49;14.07;;;8.25;;
14153;SDS011;7157;53.144;7.570;2023-04-09T17:08:52;13.50;;;8.75;;
14153;SDS011;7157;53.144;7.570;2023-04-09T17:18:57;13.65;;;8.50;;
14153;SDS011;7157;53.144;7.570;2023-04-09T17:28:59;14.70;;;8.82;;
14153;SDS011;7157;53.144;7.570;2023-04-09T17:39:04;15.48;;;8.75;;
14153;SDS011;7157;53.144;7.570;2023-04-09T17:49:07;16.33;;;9.23;;
14153;SDS011;7157;53.144;7.570;2023-04-09T17:59:11;18.60;;;9.60;;
14153;SDS011;7157;53.144;7.570;2023-04-09T18:09:14;17.73;;;9.32;;
14153;SDS011;7157;53.144;7.570;2023-04-09T18:19:18;16.08;;;9.65;;
14153;SDS011;7157;53.144;7.570;2023-04-09T18:29:21;16.08;;;8.32;;
14153;SDS011;7157;53.144;7.570;2023-04-09T18:39:25;15.25;;;8.20;;
14153;SDS011;7157;53.144;7.570;2023-04-09T18:49:28;20.38;;;9.57;;
14153;SDS011;7157;53.144;7.570;2023-04-09T18:59:32;23.73;;;11.88;;
14153;SDS011;7157;53.144;7.570;2023-04-09T19:09:35;26.83;;;13.93;;
14153;SDS011;7157;53.144;7.570;2023-04-09T19:19:40;27.10;;;12.88;;
14153;SDS011;7157;53.144;7.570;2023-04-09T19:29:42;23.23;;;11.90;;
14153;SDS011;7157;53.144;7.570;2023-04-09T19:39:48;26.25;;;13.43;;
14153;SDS011;7157;53.144;7.570;2023-04-09T19:49:51;30.85;;;14.55;;
14153;SDS011;7157;53.144;7.570;2023-04-09T19:59:55;32.42;;;15.65;;
14153;SDS011;7157;53.144;7.570;2023-04-09T20:09:57;40.50;;;18.85;;
14153;SDS011;7157;53.144;7.570;2023-04-09T20:20:02;60.28;;;28.33;;
14153;SDS011;7157;53.144;7.570;2023-04-09T20:30:06;59.55;;;28.33;;
14153;SDS011;7157;53.144;7.570;2023-04-09T20:40:11;43.15;;;22.08;;
14153;SDS011;7157;53.144;7.570;2023-04-09T20:50:14;50.83;;;25.02;;
14153;SDS011;7157;53.144;7.570;2023-04-09T21:00:18;57.15;;;29.20;;
14153;SDS011;7157;53.144;7.570;2023-04-09T21:10:20;53.75;;;25.95;;
14153;SDS011;7157;53.144;7.570;2023-04-09T21:20:24;40.55;;;20.45;;
14153;SDS011;7157;53.144;7.570;2023-04-09T21:30:27;38.95;;;18.02;;
14153;SDS011;7157;53.144;7.570;2023-04-09T21:40:32;51.45;;;23.50;;
14153;SDS011;7157;53.144;7.570;2023-04-09T21:50:35;64.90;;;28.55;;
14153;SDS011;7157;53.144;7.570;2023-04-09T22:00:39;50.13;;;24.02;;
14153;SDS011;7157;53.144;7.570;2023-04-09T22:10:43;57.42;;;24.40;;
14153;SDS011;7157;53.144;7.570;2023-04-09T22:20:47;56.90;;;26.70;;
14153;SDS011;7157;53.144;7.570;2023-04-09T22:30:50;76.22;;;33.15;;
14153;SDS011;7157;53.144;7.570;2023-04-09T22:40:55;83.35;;;34.08;;
14153;SDS011;7157;53.144;7.570;2023-04-09T22:50:57;64.43;;;30.45;;
14153;SDS011;7157;53.144;7.570;2023-04-09T23:01:02;51.92;;;26.02;;
14153;SDS011;7157;53.144;7.570;2023-04-09T23:11:04;56.75;;;26.50;;
14153;SDS011;7157;53.144;7.570;2023-04-09T23:21:09;56.05;;;27.35;;
14153;SDS011;7157;53.144;7.570;2023-04-09T23:31:12;65.57;;;30.65;;
14153;SDS011;7157;53.144;7.570;2023-04-09T23:41:16;80.25;;;35.03;;
14153;SDS011;7157;53.144;7.570;2023-04-09T23:51:19;75.05;;;31.38;;
